sensor_id;sensor_type;location;lat;lon;timestamp;pressure;altitude;pressure_sealevel;temperature;humidity
66681;BME280;53575;51.366;12.350;2023-07-31T00:01:17;99915.81;;;16.85;80.64
66681;BME280;53575;51.366;12.350;2023-07-31T00:03:43;99913.81;;;16.91;80.75
66681;BME280;53575;51.366;12.350;2023-07-31T00:06:08;99915.50;;;16.92;80.46
66681;BME280;53575;51.366;12.350;2023-07-31T00:08:34;99905.69;;;16.96;80.40
66681;BME280;53575;51.366;12.350;2023-07-31T00:10:59;99911.03;;;16.94;79.53
66681;BME280;53575;51.366;12.350;2023-07-31T00:13:24;99908.56;;;16.90;80.38
66681;BME280;53575;51.366;12.350;2023-07-31T00:15:50;99912.88;;;16.92;80.27
66681;BME280;53575;51.366;12.350;2023-07-31T00:18:15;99902.44;;;16.89;81.03
66681;BME280;53575;51.366;12.350;2023-07-31T00:20:41;99904.84;;;16.95;81.19
66681;BME280;53575;51.366;12.350;2023-07-31T00:23:06;99899.44;;;16.98;81.22
66681;BME280;53575;51.366;12.350;2023-07-31T00:25:32;99908.84;;;16.82;83.04
66681;BME280;53575;51.366;12.350;2023-07-31T00:27:57;99910.31;;;16.66;84.26
66681;BME280;53575;51.366;12.350;2023-07-31T00:30:22;99902.53;;;16.63;85.57
66681;BME280;53575;51.366;12.350;2023-07-31T00:32:50;99902.19;;;16.72;84.33
66681;BME280;53575;51.366;12.350;2023-07-31T00:35:15;99902.50;;;16.64;84.51
66681;BME280;53575;51.366;12.350;2023-07-31T00:37:41;99907.19;;;16.56;85.19
66681;BME280;53575;51.366;12.350;2023-07-31T00:40:07;99902.59;;;16.61;85.74
66681;BME280;53575;51.366;12.350;2023-07-31T00:42:32;99903.28;;;16.66;84.83
66681;BME280;53575;51.366;12.350;2023-07-31T00:44:58;99895.53;;;16.62;85.14
66681;BME280;53575;51.366;12.350;2023-07-31T00:47:23;99891.50;;;16.51;85.64
66681;BME280;53575;51.366;12.350;2023-07-31T00:49:49;99893.06;;;16.57;85.55
66681;BME280;53575;51.366;12.350;2023-07-31T00:52:14;99897.50;;;16.56;84.63
66681;BME280;53575;51.366;12.350;2023-07-31T00:54:40;99892.22;;;16.56;83.77
66681;BME280;53575;51.366;12.350;2023-07-31T00:57:05;99895.75;;;16.55;84.37
66681;BME280;53575;51.366;12.350;2023-07-31T00:59:33;99890.16;;;16.65;84.18
66681;BME280;53575;51.366;12.350;2023-07-31T01:01:59;99883.63;;;16.75;82.95
66681;BME280;53575;51.366;12.350;2023-07-31T01:04:25;99886.47;;;16.69;82.47
66681;BME280;53575;51.366;12.350;2023-07-31T01:12:02;99882.59;;;16.79;81.32
66681;BME280;53575;51.366;12.350;2023-07-31T01:14:28;99885.75;;;16.89;79.69
66681;BME280;53575;51.366;12.350;2023-07-31T01:16:54;99880.28;;;16.93;78.96
66681;BME280;53575;51.366;12.350;2023-07-31T01:19:23;99877.41;;;16.99;78.98
66681;BME280;53575;51.366;12.350;2023-07-31T01:24:59;99870.47;;;17.19;77.49
66681;BME280;53575;51.366;12.350;2023-07-31T01:27:30;99872.59;;;17.09;77.97
66681;BME280;53575;51.366;12.350;2023-07-31T01:30:12;99864.75;;;17.08;77.97
66681;BME280;53575;51.366;12.350;2023-07-31T01:32:43;99858.31;;;17.15;77.17
66681;BME280;53575;51.366;12.350;2023-07-31T01:35:12;99855.00;;;17.10;77.74
66681;BME280;53575;51.366;12.350;2023-07-31T01:37:38;99854.84;;;17.13;77.13
66681;BME280;53575;51.366;12.350;2023-07-31T01:40:04;99860.28;;;17.10;77.62
66681;BME280;53575;51.366;12.350;2023-07-31T01:42:30;99854.94;;;17.11;78.01
66681;BME280;53575;51.366;12.350;2023-07-31T01:44:55;99849.56;;;17.13;78.17
66681;BME280;53575;51.366;12.350;2023-07-31T01:47:21;99859.34;;;17.11;78.80
66681;BME280;53575;51.366;12.350;2023-07-31T01:49:46;99857.66;;;17.10;79.36
66681;BME280;53575;51.366;12.350;2023-07-31T01:52:11;99853.53;;;17.02;80.57
66681;BME280;53575;51.366;12.350;2023-07-31T01:54:37;99856.59;;;16.92;81.33
66681;BME280;53575;51.366;12.350;2023-07-31T01:57:02;99849.91;;;16.83;82.30
66681;BME280;53575;51.366;12.350;2023-07-31T01:59:28;99848.16;;;16.82;82.66
66681;BME280;53575;51.366;12.350;2023-07-31T02:01:54;99842.03;;;16.81;83.22
66681;BME280;53575;51.366;12.350;2023-07-31T02:04:19;99837.78;;;16.77;83.75
66681;BME280;53575;51.366;12.350;2023-07-31T02:06:45;99836.94;;;16.77;82.83
66681;BME280;53575;51.366;12.350;2023-07-31T02:09:13;99830.03;;;16.73;83.00
66681;BME280;53575;51.366;12.350;2023-07-31T02:11:39;99824.00;;;16.69;82.80
66681;BME280;53575;51.366;12.350;2023-07-31T02:14:04;99824.97;;;16.67;82.96
66681;BME280;53575;51.366;12.350;2023-07-31T02:16:29;99832.78;;;16.70;82.69
66681;BME280;53575;51.366;12.350;2023-07-31T02:18:55;99821.22;;;16.74;82.38
66681;BME280;53575;51.366;12.350;2023-07-31T02:21:20;99824.00;;;16.69;82.66
66681;BME280;53575;51.366;12.350;2023-07-31T02:23:46;99822.94;;;16.75;82.39
66681;BME280;53575;51.366;12.350;2023-07-31T02:26:11;99821.97;;;16.77;81.59
66681;BME280;53575;51.366;12.350;2023-07-31T02:28:36;99821.84;;;16.80;81.55
66681;BME280;53575;51.366;12.350;2023-07-31T02:31:02;99817.41;;;16.81;81.38
66681;BME280;53575;51.366;12.350;2023-07-31T02:33:27;99808.47;;;16.85;82.12
66681;BME280;53575;51.366;12.350;2023-07-31T02:35:53;99801.34;;;16.87;81.84
66681;BME280;53575;51.366;12.350;2023-07-31T02:38:18;99814.41;;;16.90;82.26
66681;BME280;53575;51.366;12.350;2023-07-31T02:40:44;99811.66;;;16.93;82.56
66681;BME280;53575;51.366;12.350;2023-07-31T02:43:09;99807.38;;;16.91;83.38
66681;BME280;53575;51.366;12.350;2023-07-31T02:45:35;99794.28;;;16.88;82.78
66681;BME280;53575;51.366;12.350;2023-07-31T02:48:00;99790.28;;;16.77;83.44
66681;BME280;53575;51.366;12.350;2023-07-31T02:50:26;99791.09;;;16.79;83.54
66681;BME280;53575;51.366;12.350;2023-07-31T02:52:52;99798.31;;;16.74;83.38
66681;BME280;53575;51.366;12.350;2023-07-31T02:55:18;99796.97;;;16.64;85.80
66681;BME280;53575;51.366;12.350;2023-07-31T02:57:43;99793.50;;;16.62;85.96
66681;BME280;53575;51.366;12.350;2023-07-31T03:00:09;99791.63;;;16.66;85.43
66681;BME280;53575;51.366;12.350;2023-07-31T03:02:34;99795.41;;;16.58;86.58
66681;BME280;53575;51.366;12.350;2023-07-31T03:05:00;99789.66;;;16.49;87.29
66681;BME280;53575;51.366;12.350;2023-07-31T03:07:25;99790.38;;;16.52;86.98
66681;BME280;53575;51.366;12.350;2023-07-31T03:09:51;99794.09;;;16.47;86.94
66681;BME280;53575;51.366;12.350;2023-07-31T03:12:16;99790.69;;;16.45;87.15
66681;BME280;53575;51.366;12.350;2023-07-31T03:14:42;99787.88;;;16.49;87.19
66681;BME280;53575;51.366;12.350;2023-07-31T03:17:07;99794.47;;;16.38;87.35
66681;BME280;53575;51.366;12.350;2023-07-31T03:19:32;99791.69;;;16.41;87.33
66681;BME280;53575;51.366;12.350;2023-07-31T03:21:59;99788.47;;;16.34;87.64
66681;BME280;53575;51.366;12.350;2023-07-31T03:24:25;99792.28;;;16.25;88.00
66681;BME280;53575;51.366;12.350;2023-07-31T03:26:50;99778.75;;;16.35;87.25
66681;BME280;53575;51.366;12.350;2023-07-31T03:29:15;99781.22;;;16.39;87.16
66681;BME280;53575;51.366;12.350;2023-07-31T03:31:41;99779.81;;;16.30;87.63
66681;BME280;53575;51.366;12.350;2023-07-31T03:34:06;99778.69;;;16.36;88.10
66681;BME280;53575;51.366;12.350;2023-07-31T03:36:32;99776.34;;;16.28;88.20
66681;BME280;53575;51.366;12.350;2023-07-31T03:38:57;99776.16;;;16.33;89.16
66681;BME280;53575;51.366;12.350;2023-07-31T03:41:23;99775.59;;;16.25;89.67
66681;BME280;53575;51.366;12.350;2023-07-31T03:43:51;99774.41;;;16.10;91.50
66681;BME280;53575;51.366;12.350;2023-07-31T03:46:17;99769.38;;;16.04;92.57
66681;BME280;53575;51.366;12.350;2023-07-31T03:48:42;99770.41;;;16.00;92.56
66681;BME280;53575;51.366;12.350;2023-07-31T03:51:08;99765.06;;;16.01;93.47
66681;BME280;53575;51.366;12.350;2023-07-31T03:53:33;99758.25;;;15.96;94.43
66681;BME280;53575;51.366;12.350;2023-07-31T03:55:59;99763.00;;;15.86;95.27
66681;BME280;53575;51.366;12.350;2023-07-31T03:58:24;99767.41;;;15.86;94.87
66681;BME280;53575;51.366;12.350;2023-07-31T04:00:49;99760.53;;;15.81;95.79
66681;BME280;53575;51.366;12.350;2023-07-31T04:03:15;99765.13;;;15.76;96.50
66681;BME280;53575;51.366;12.350;2023-07-31T04:05:40;99766.63;;;15.83;95.79
66681;BME280;53575;51.366;12.350;2023-07-31T04:08:06;99762.34;;;15.79;96.29
66681;BME280;53575;51.366;12.350;2023-07-31T04:10:31;99766.91;;;15.76;96.05
66681;BME280;53575;51.366;12.350;2023-07-31T04:12:58;99758.88;;;15.79;96.26
66681;BME280;53575;51.366;12.350;2023-07-31T04:15:24;99772.19;;;15.76;96.31
66681;BME280;53575;51.366;12.350;2023-07-31T04:17:49;99760.66;;;15.78;96.39
66681;BME280;53575;51.366;12.350;2023-07-31T04:20:15;99766.34;;;15.91;95.31
66681;BME280;53575;51.366;12.350;2023-07-31T04:22:40;99754.69;;;15.97;95.73
66681;BME280;53575;51.366;12.350;2023-07-31T04:25:05;99758.16;;;15.99;95.26
66681;BME280;53575;51.366;12.350;2023-07-31T04:27:31;99759.00;;;15.99;95.76
66681;BME280;53575;51.366;12.350;2023-07-31T04:29:56;99753.84;;;15.96;95.61
66681;BME280;53575;51.366;12.350;2023-07-31T04:32:22;99761.97;;;15.90;96.67
66681;BME280;53575;51.366;12.350;2023-07-31T04:34:47;99763.53;;;15.96;96.00
66681;BME280;53575;51.366;12.350;2023-07-31T04:37:12;99762.81;;;15.91;97.01
66681;BME280;53575;51.366;12.350;2023-07-31T04:39:39;99767.88;;;15.97;98.01
66681;BME280;53575;51.366;12.350;2023-07-31T04:42:05;99759.06;;;15.98;97.03
66681;BME280;53575;51.366;12.350;2023-07-31T04:44:30;99751.84;;;16.03;97.48
66681;BME280;53575;51.366;12.350;2023-07-31T04:46:55;99752.72;;;16.03;98.23
66681;BME280;53575;51.366;12.350;2023-07-31T04:49:21;99752.81;;;16.00;98.33
66681;BME280;53575;51.366;12.350;2023-07-31T04:51:47;99760.84;;;15.97;100.00
66681;BME280;53575;51.366;12.350;2023-07-31T04:54:12;99754.91;;;15.91;100.00
66681;BME280;53575;51.366;12.350;2023-07-31T04:56:40;99760.31;;;15.88;100.00
66681;BME280;53575;51.366;12.350;2023-07-31T04:59:06;99759.44;;;15.87;100.00
66681;BME280;53575;51.366;12.350;2023-07-31T05:01:31;99758.13;;;15.75;100.00
66681;BME280;53575;51.366;12.350;2023-07-31T05:03:57;99755.38;;;15.78;100.00
66681;BME280;53575;51.366;12.350;2023-07-31T05:06:22;99756.69;;;15.67;100.00
66681;BME280;53575;51.366;12.350;2023-07-31T05:08:47;99753.22;;;15.65;100.00
66681;BME280;53575;51.366;12.350;2023-07-31T05:11:13;99755.81;;;15.66;100.00
66681;BME280;53575;51.366;12.350;2023-07-31T05:13:38;99760.81;;;15.74;100.00
66681;BME280;53575;51.366;12.350;2023-07-31T05:16:04;99760.00;;;15.72;100.00
66681;BME280;53575;51.366;12.350;2023-07-31T05:18:29;99755.56;;;15.74;100.00
66681;BME280;53575;51.366;12.350;2023-07-31T05:20:55;99761.69;;;15.74;100.00
66681;BME280;53575;51.366;12.350;2023-07-31T05:23:20;99766.38;;;15.66;100.00
66681;BME280;53575;51.366;12.350;2023-07-31T05:25:45;99754.19;;;15.62;100.00
66681;BME280;53575;51.366;12.350;2023-07-31T05:28:12;99758.63;;;15.60;100.00
66681;BME280;53575;51.366;12.350;2023-07-31T05:30:37;99763.63;;;15.69;100.00
66681;BME280;53575;51.366;12.350;2023-07-31T05:33:03;99758.25;;;15.72;100.00
66681;BME280;53575;51.366;12.350;2023-07-31T05:35:28;99761.03;;;15.68;100.00
66681;BME280;53575;51.366;12.350;2023-07-31T05:37:53;99753.84;;;15.73;100.00
66681;BME280;53575;51.366;12.350;2023-07-31T05:40:19;99754.69;;;15.73;100.00
66681;BME280;53575;51.366;12.350;2023-07-31T05:42:44;99747.53;;;15.77;100.00
66681;BME280;53575;51.366;12.350;2023-07-31T05:45:10;99747.28;;;15.83;100.00
66681;BME280;53575;51.366;12.350;2023-07-31T05:47:35;99746.91;;;15.94;100.00
66681;BME280;53575;51.366;12.350;2023-07-31T05:50:01;99747.91;;;15.91;100.00
66681;BME280;53575;51.366;12.350;2023-07-31T05:52:26;99750.28;;;15.97;100.00
66681;BME280;53575;51.366;12.350;2023-07-31T05:54:54;99752.88;;;15.99;100.00
66681;BME280;53575;51.366;12.350;2023-07-31T05:57:19;99750.97;;;16.02;100.00
66681;BME280;53575;51.366;12.350;2023-07-31T05:59:45;99753.97;;;15.93;100.00
66681;BME280;53575;51.366;12.350;2023-07-31T06:02:10;99746.72;;;15.98;100.00
66681;BME280;53575;51.366;12.350;2023-07-31T06:04:36;99750.81;;;16.07;100.00
66681;BME280;53575;51.366;12.350;2023-07-31T06:07:01;99742.06;;;16.06;100.00
66681;BME280;53575;51.366;12.350;2023-07-31T06:09:28;99748.28;;;16.04;100.00
66681;BME280;53575;51.366;12.350;2023-07-31T06:11:53;99753.50;;;16.05;100.00
66681;BME280;53575;51.366;12.350;2023-07-31T06:14:18;99753.16;;;16.15;100.00
66681;BME280;53575;51.366;12.350;2023-07-31T06:16:44;99746.31;;;16.09;100.00
66681;BME280;53575;51.366;12.350;2023-07-31T06:19:10;99751.31;;;16.17;100.00
66681;BME280;53575;51.366;12.350;2023-07-31T06:21:35;99746.75;;;16.22;100.00
66681;BME280;53575;51.366;12.350;2023-07-31T06:24:03;99742.88;;;16.30;100.00
66681;BME280;53575;51.366;12.350;2023-07-31T06:26:29;99750.50;;;16.38;100.00
66681;BME280;53575;51.366;12.350;2023-07-31T06:28:54;99744.06;;;16.45;100.00
66681;BME280;53575;51.366;12.350;2023-07-31T06:31:19;99745.25;;;16.60;100.00
66681;BME280;53575;51.366;12.350;2023-07-31T06:33:51;99744.34;;;16.60;100.00
66681;BME280;53575;51.366;12.350;2023-07-31T06:36:17;99740.75;;;16.62;100.00
66681;BME280;53575;51.366;12.350;2023-07-31T06:38:43;99750.38;;;16.63;100.00
66681;BME280;53575;51.366;12.350;2023-07-31T06:41:08;99742.41;;;16.65;100.00
66681;BME280;53575;51.366;12.350;2023-07-31T06:43:35;99748.44;;;16.68;100.00
66681;BME280;53575;51.366;12.350;2023-07-31T06:46:07;99740.72;;;16.64;100.00
66681;BME280;53575;51.366;12.350;2023-07-31T06:48:33;99744.97;;;16.66;100.00
66681;BME280;53575;51.366;12.350;2023-07-31T06:51:00;99745.06;;;16.65;100.00
66681;BME280;53575;51.366;12.350;2023-07-31T06:53:26;99747.81;;;16.62;100.00
66681;BME280;53575;51.366;12.350;2023-07-31T06:55:51;99751.38;;;16.61;100.00
66681;BME280;53575;51.366;12.350;2023-07-31T06:58:17;99751.31;;;16.62;100.00
66681;BME280;53575;51.366;12.350;2023-07-31T07:00:43;99750.56;;;16.58;100.00
66681;BME280;53575;51.366;12.350;2023-07-31T07:03:08;99747.69;;;16.65;100.00
66681;BME280;53575;51.366;12.350;2023-07-31T07:05:33;99755.78;;;16.60;99.61
66681;BME280;53575;51.366;12.350;2023-07-31T07:07:59;99757.91;;;16.74;97.71
66681;BME280;53575;51.366;12.350;2023-07-31T07:10:25;99758.75;;;16.74;97.32
66681;BME280;53575;51.366;12.350;2023-07-31T07:12:50;99736.28;;;16.86;97.36
66681;BME280;53575;51.366;12.350;2023-07-31T07:15:16;99741.25;;;16.94;95.98
66681;BME280;53575;51.366;12.350;2023-07-31T07:17:41;99748.09;;;16.98;96.61
66681;BME280;53575;51.366;12.350;2023-07-31T07:20:07;99752.41;;;17.00;94.99
66681;BME280;53575;51.366;12.350;2023-07-31T07:22:33;99752.16;;;17.07;94.71
66681;BME280;53575;51.366;12.350;2023-07-31T07:24:58;99748.84;;;17.01;95.20
66681;BME280;53575;51.366;12.350;2023-07-31T07:27:24;99750.44;;;17.05;94.06
66681;BME280;53575;51.366;12.350;2023-07-31T07:29:52;99748.41;;;17.12;93.53
66681;BME280;53575;51.366;12.350;2023-07-31T07:32:18;99747.03;;;17.24;92.57
66681;BME280;53575;51.366;12.350;2023-07-31T07:34:43;99750.25;;;17.30;92.67
66681;BME280;53575;51.366;12.350;2023-07-31T07:37:09;99761.31;;;17.40;91.71
66681;BME280;53575;51.366;12.350;2023-07-31T07:39:34;99760.97;;;17.48;91.14
66681;BME280;53575;51.366;12.350;2023-07-31T07:42:00;99758.66;;;17.61;91.59
66681;BME280;53575;51.366;12.350;2023-07-31T07:44:25;99751.66;;;17.60;91.40
66681;BME280;53575;51.366;12.350;2023-07-31T07:46:51;99739.72;;;17.70;91.23
66681;BME280;53575;51.366;12.350;2023-07-31T07:49:17;99744.03;;;17.72;91.13
66681;BME280;53575;51.366;12.350;2023-07-31T07:51:43;99737.78;;;17.75;89.77
66681;BME280;53575;51.366;12.350;2023-07-31T07:54:08;99739.72;;;17.70;89.24
66681;BME280;53575;51.366;12.350;2023-07-31T07:56:33;99743.81;;;17.78;89.28
66681;BME280;53575;51.366;12.350;2023-07-31T07:59:01;99747.47;;;17.74;89.74
66681;BME280;53575;51.366;12.350;2023-07-31T08:01:26;99746.75;;;17.71;89.39
66681;BME280;53575;51.366;12.350;2023-07-31T08:03:52;99750.72;;;17.81;89.53
66681;BME280;53575;51.366;12.350;2023-07-31T08:06:17;99739.25;;;17.82;89.65
66681;BME280;53575;51.366;12.350;2023-07-31T08:08:42;99732.72;;;17.89;89.13
66681;BME280;53575;51.366;12.350;2023-07-31T08:11:08;99733.09;;;18.00;87.85
66681;BME280;53575;51.366;12.350;2023-07-31T08:13:33;99739.19;;;18.02;88.36
66681;BME280;53575;51.366;12.350;2023-07-31T08:15:59;99740.13;;;18.01;87.64
66681;BME280;53575;51.366;12.350;2023-07-31T08:18:24;99734.25;;;18.14;87.16
66681;BME280;53575;51.366;12.350;2023-07-31T08:20:49;99737.31;;;18.23;87.22
66681;BME280;53575;51.366;12.350;2023-07-31T08:23:15;99739.53;;;18.33;87.45
66681;BME280;53575;51.366;12.350;2023-07-31T08:25:40;99727.38;;;18.47;86.29
66681;BME280;53575;51.366;12.350;2023-07-31T08:28:06;99730.50;;;18.56;85.26
66681;BME280;53575;51.366;12.350;2023-07-31T08:30:32;99727.41;;;18.65;84.92
66681;BME280;53575;51.366;12.350;2023-07-31T08:32:58;99722.75;;;18.70;84.92
66681;BME280;53575;51.366;12.350;2023-07-31T08:35:25;99721.13;;;18.67;84.78
66681;BME280;53575;51.366;12.350;2023-07-31T08:37:50;99722.06;;;18.66;84.08
66681;BME280;53575;51.366;12.350;2023-07-31T08:40:16;99723.88;;;18.83;83.83
66681;BME280;53575;51.366;12.350;2023-07-31T08:42:50;99721.16;;;18.85;83.49
66681;BME280;53575;51.366;12.350;2023-07-31T08:45:19;99723.66;;;18.88;83.53
66681;BME280;53575;51.366;12.350;2023-07-31T08:47:50;99729.66;;;18.91;82.98
66681;BME280;53575;51.366;12.350;2023-07-31T08:50:20;99730.69;;;18.89;82.50
66681;BME280;53575;51.366;12.350;2023-07-31T08:52:47;99733.16;;;18.74;83.37
66681;BME280;53575;51.366;12.350;2023-07-31T08:55:13;99730.50;;;18.74;82.46
66681;BME280;53575;51.366;12.350;2023-07-31T08:57:39;99729.34;;;18.80;82.48
66681;BME280;53575;51.366;12.350;2023-07-31T09:00:06;99726.06;;;18.92;83.03
66681;BME280;53575;51.366;12.350;2023-07-31T09:03:14;99728.84;;;19.08;82.54
66681;BME280;53575;51.366;12.350;2023-07-31T09:05:43;99730.38;;;19.12;81.16
66681;BME280;53575;51.366;12.350;2023-07-31T09:08:09;99730.69;;;19.06;80.00
66681;BME280;53575;51.366;12.350;2023-07-31T09:10:43;99728.25;;;19.19;79.96
66681;BME280;53575;51.366;12.350;2023-07-31T09:13:11;99740.13;;;19.12;79.69
66681;BME280;53575;51.366;12.350;2023-07-31T09:15:36;99733.44;;;19.05;79.57
66681;BME280;53575;51.366;12.350;2023-07-31T09:18:04;99724.38;;;19.09;79.80
66681;BME280;53575;51.366;12.350;2023-07-31T09:20:30;99737.16;;;19.01;80.21
66681;BME280;53575;51.366;12.350;2023-07-31T09:23:05;99733.81;;;18.97;80.29
66681;BME280;53575;51.366;12.350;2023-07-31T09:25:31;99736.28;;;19.00;80.45
66681;BME280;53575;51.366;12.350;2023-07-31T09:28:01;99733.81;;;18.97;80.94
66681;BME280;53575;51.366;12.350;2023-07-31T09:30:27;99735.81;;;18.92;79.94
66681;BME280;53575;51.366;12.350;2023-07-31T09:33:01;99736.84;;;19.07;79.90
66681;BME280;53575;51.366;12.350;2023-07-31T09:37:55;99734.34;;;19.04;79.52
66681;BME280;53575;51.366;12.350;2023-07-31T09:40:32;99730.53;;;19.09;79.18
66681;BME280;53575;51.366;12.350;2023-07-31T09:43:00;99714.09;;;19.03;79.03
66681;BME280;53575;51.366;12.350;2023-07-31T09:45:26;99710.19;;;19.10;79.05
66681;BME280;53575;51.366;12.350;2023-07-31T09:47:52;99718.00;;;19.13;79.04
66681;BME280;53575;51.366;12.350;2023-07-31T09:50:19;99707.88;;;19.21;78.95
66681;BME280;53575;51.366;12.350;2023-07-31T09:52:44;99709.72;;;19.36;78.15
66681;BME280;53575;51.366;12.350;2023-07-31T09:55:10;99702.81;;;19.49;78.15
66681;BME280;53575;51.366;12.350;2023-07-31T09:57:41;99700.66;;;19.58;78.37
66681;BME280;53575;51.366;12.350;2023-07-31T10:00:10;99698.81;;;19.76;78.71
66681;BME280;53575;51.366;12.350;2023-07-31T10:02:37;99704.94;;;19.93;79.39
66681;BME280;53575;51.366;12.350;2023-07-31T10:05:04;99700.34;;;19.97;79.76
66681;BME280;53575;51.366;12.350;2023-07-31T10:07:30;99710.00;;;19.98;79.77
66681;BME280;53575;51.366;12.350;2023-07-31T10:10:00;99700.16;;;20.00;78.11
66681;BME280;53575;51.366;12.350;2023-07-31T10:12:26;99708.28;;;20.13;79.05
66681;BME280;53575;51.366;12.350;2023-07-31T10:14:56;99700.34;;;20.13;76.84
66681;BME280;53575;51.366;12.350;2023-07-31T10:17:22;99690.16;;;20.21;76.99
66681;BME280;53575;51.366;12.350;2023-07-31T10:19:49;99685.09;;;20.32;75.79
66681;BME280;53575;51.366;12.350;2023-07-31T10:22:15;99684.84;;;20.37;74.93
66681;BME280;53575;51.366;12.350;2023-07-31T10:24:45;99688.59;;;20.49;75.33
66681;BME280;53575;51.366;12.350;2023-07-31T10:27:11;99674.75;;;20.59;74.68
66681;BME280;53575;51.366;12.350;2023-07-31T10:29:41;99683.94;;;20.54;75.63
66681;BME280;53575;51.366;12.350;2023-07-31T10:32:09;99684.34;;;20.46;75.73
66681;BME280;53575;51.366;12.350;2023-07-31T10:34:38;99694.00;;;20.47;74.81
66681;BME280;53575;51.366;12.350;2023-07-31T10:39:56;99676.47;;;20.29;75.36
66681;BME280;53575;51.366;12.350;2023-07-31T10:42:28;99669.97;;;20.34;75.21
66681;BME280;53575;51.366;12.350;2023-07-31T10:44:59;99675.16;;;20.36;75.55
66681;BME280;53575;51.366;12.350;2023-07-31T10:47:26;99654.34;;;20.44;75.14
66681;BME280;53575;51.366;12.350;2023-07-31T10:49:51;99660.03;;;20.54;74.91
66681;BME280;53575;51.366;12.350;2023-07-31T10:52:21;99661.69;;;20.71;74.60
66681;BME280;53575;51.366;12.350;2023-07-31T10:57:49;99666.44;;;20.96;73.56
66681;BME280;53575;51.366;12.350;2023-07-31T11:00:25;99660.38;;;21.08;72.64
66681;BME280;53575;51.366;12.350;2023-07-31T11:03:11;99649.78;;;21.22;73.28
66681;BME280;53575;51.366;12.350;2023-07-31T11:06:00;99630.38;;;21.36;72.30
66681;BME280;53575;51.366;12.350;2023-07-31T11:08:31;99634.84;;;21.50;71.17
66681;BME280;53575;51.366;12.350;2023-07-31T11:13:29;99619.00;;;22.04;69.13
66681;BME280;53575;51.366;12.350;2023-07-31T11:15:55;99609.88;;;22.35;68.19
66681;BME280;53575;51.366;12.350;2023-07-31T11:18:20;99608.13;;;22.48;67.64
66681;BME280;53575;51.366;12.350;2023-07-31T11:20:46;99613.78;;;22.56;66.44
66681;BME280;53575;51.366;12.350;2023-07-31T11:23:12;99612.38;;;22.91;65.90
66681;BME280;53575;51.366;12.350;2023-07-31T11:25:39;99611.44;;;22.92;65.47
66681;BME280;53575;51.366;12.350;2023-07-31T11:28:14;99623.78;;;22.53;65.74
66681;BME280;53575;51.366;12.350;2023-07-31T11:30:41;99608.06;;;22.35;66.48
66681;BME280;53575;51.366;12.350;2023-07-31T11:33:07;99599.56;;;22.43;66.27
66681;BME280;53575;51.366;12.350;2023-07-31T11:35:35;99594.56;;;22.38;65.91
66681;BME280;53575;51.366;12.350;2023-07-31T11:38:02;99597.16;;;22.53;65.59
66681;BME280;53575;51.366;12.350;2023-07-31T11:40:28;99601.91;;;22.35;65.81
66681;BME280;53575;51.366;12.350;2023-07-31T11:42:56;99602.00;;;22.33;65.18
66681;BME280;53575;51.366;12.350;2023-07-31T11:45:25;99593.03;;;22.22;66.67
66681;BME280;53575;51.366;12.350;2023-07-31T11:47:50;99593.53;;;22.14;65.95
66681;BME280;53575;51.366;12.350;2023-07-31T11:50:16;99591.25;;;21.94;66.61
66681;BME280;53575;51.366;12.350;2023-07-31T11:52:44;99589.31;;;21.83;67.02
66681;BME280;53575;51.366;12.350;2023-07-31T11:55:12;99579.13;;;21.89;67.90
66681;BME280;53575;51.366;12.350;2023-07-31T11:57:39;99586.16;;;21.90;66.96
66681;BME280;53575;51.366;12.350;2023-07-31T12:00:09;99589.56;;;21.93;67.37
66681;BME280;53575;51.366;12.350;2023-07-31T12:02:36;99595.19;;;21.88;66.90
66681;BME280;53575;51.366;12.350;2023-07-31T12:05:05;99588.31;;;21.71;68.69
66681;BME280;53575;51.366;12.350;2023-07-31T12:07:46;99581.25;;;21.56;70.25
66681;BME280;53575;51.366;12.350;2023-07-31T12:10:25;99582.81;;;21.46;72.59
66681;BME280;53575;51.366;12.350;2023-07-31T12:13:09;99593.53;;;21.44;70.99
66681;BME280;53575;51.366;12.350;2023-07-31T12:15:42;99588.50;;;21.39;69.39
66681;BME280;53575;51.366;12.350;2023-07-31T12:18:13;99584.22;;;21.51;68.75
66681;BME280;53575;51.366;12.350;2023-07-31T12:20:45;99602.28;;;21.46;68.17
66681;BME280;53575;51.366;12.350;2023-07-31T12:23:19;99592.13;;;21.38;66.91
66681;BME280;53575;51.366;12.350;2023-07-31T12:25:44;99586.69;;;21.54;67.01
66681;BME280;53575;51.366;12.350;2023-07-31T12:28:10;99575.53;;;21.90;65.77
66681;BME280;53575;51.366;12.350;2023-07-31T12:30:40;99582.69;;;22.17;64.82
66681;BME280;53575;51.366;12.350;2023-07-31T12:33:15;99579.72;;;22.22;64.85
66681;BME280;53575;51.366;12.350;2023-07-31T12:35:43;99568.78;;;22.39;64.84
66681;BME280;53575;51.366;12.350;2023-07-31T12:38:09;99570.53;;;22.40;63.99
66681;BME280;53575;51.366;12.350;2023-07-31T12:40:37;99565.25;;;22.26;64.13
66681;BME280;53575;51.366;12.350;2023-07-31T12:43:04;99566.63;;;22.19;64.59
66681;BME280;53575;51.366;12.350;2023-07-31T12:45:30;99559.00;;;22.12;65.61
66681;BME280;53575;51.366;12.350;2023-07-31T12:47:56;99557.41;;;22.37;65.49
66681;BME280;53575;51.366;12.350;2023-07-31T12:50:22;99562.09;;;22.46;64.95
66681;BME280;53575;51.366;12.350;2023-07-31T12:52:49;99546.78;;;22.50;64.53
66681;BME280;53575;51.366;12.350;2023-07-31T12:55:15;99544.44;;;22.58;64.53
66681;BME280;53575;51.366;12.350;2023-07-31T12:57:40;99546.25;;;22.70;63.73
66681;BME280;53575;51.366;12.350;2023-07-31T13:00:07;99532.84;;;22.84;63.77
66681;BME280;53575;51.366;12.350;2023-07-31T13:02:33;99535.03;;;23.05;63.00
66681;BME280;53575;51.366;12.350;2023-07-31T13:04:58;99529.88;;;23.15;61.55